Time;durP1;ratioP1;P1;durP2;ratioP2;P2;SDS_P1;SDS_P2;PMS_P1;PMS_P2;Temp;Humidity;BMP_temperature;BMP_pressure;BME280_temperature;BME280_humidity;BME280_pressure;Samples;Min_cycle;Max_cycle;Signal;HPM_P1;HPM_P2
2023/06/30 00:01:50;;;;;;;7.73;1.90;;;;;;;16.82;99.13;101474.00;5088969;28;20392;-37
2023/06/30 00:04:16;;;;;;;;;;;;;;;16.94;98.77;101482.88;5089478;28;20742;-37
2023/06/30 00:06:42;;;;;;;4.53;1.63;;;;;;;16.73;99.55;101476.34;5089689;28;19919;-37
2023/06/30 00:09:08;;;;;;;7.32;2.10;;;;;;;16.67;100.00;101471.06;5088500;28;20525;-37
2023/06/30 00:11:33;;;;;;;4.82;1.45;;;;;;;16.59;99.87;101460.59;5078093;28;20021;-37
2023/06/30 00:13:58;;;;;;;;;;;;;;;16.81;99.27;101468.78;5075816;28;20032;-38
2023/06/30 00:16:24;;;;;;;6.00;1.70;;;;;;;16.62;100.00;101474.56;5075214;28;19998;-37
2023/06/30 00:18:49;;;;;;;;;;;;;;;16.79;99.35;101471.78;5075421;28;20319;-37
2023/06/30 00:21:15;;;;;;;4.37;1.30;;;;;;;16.56;100.00;101463.84;5075331;28;20376;-37
2023/06/30 00:23:41;;;;;;;6.88;1.70;;;;;;;16.59;100.00;101468.78;5074871;28;20762;-37
2023/06/30 00:26:06;;;;;;;;;;;;;;;16.72;100.00;101469.25;5076201;28;20082;-37
2023/06/30 00:28:32;;;;;;;6.03;1.75;;;;;;;16.61;100.00;101472.91;5074824;28;19916;-37
2023/06/30 00:30:57;;;;;;;;;;;;;;;16.69;100.00;101469.75;5075241;28;20054;-37
2023/06/30 00:33:22;;;;;;;5.30;1.60;;;;;;;16.55;100.00;101464.94;5075144;28;19916;-37
2023/06/30 00:35:47;;;;;;;;;;;;;;;16.65;100.00;101459.59;5076219;28;20338;-37
2023/06/30 00:38:13;;;;;;;6.07;2.07;;;;;;;16.52;100.00;101468.16;5074992;28;20017;-37
2023/06/30 00:40:38;;;;;;;;;;;;;;;16.61;100.00;101470.19;5075109;28;20259;-37
2023/06/30 00:43:04;;;;;;;6.18;2.50;;;;;;;16.35;100.00;101444.50;5075451;28;19916;-37
2023/06/30 00:45:29;;;;;;;;;;;;;;;16.56;100.00;101469.31;5075280;28;20103;-37
2023/06/30 00:47:54;;;;;;;6.28;1.90;;;;;;;16.37;100.00;101466.09;5074870;28;19999;-37
2023/06/30 00:50:20;;;;;;;;;;;;;;;16.48;100.00;101463.22;5075197;28;20461;-36
2023/06/30 00:52:48;;;;;;;6.82;2.17;;;;;;;16.19;100.00;101448.94;5075506;28;19959;-36
2023/06/30 00:55:14;;;;;;;8.52;2.10;;;;;;;16.18;100.00;101455.47;5074914;28;20376;-36
2023/06/30 00:57:41;;;;;;;5.70;1.95;;;;;;;16.21;100.00;101459.63;5075259;28;20039;-36
2023/06/30 01:00:10;;;;;;;6.35;2.03;;;;;;;16.11;100.00;101460.31;5075038;28;20052;-36
2023/06/30 01:02:45;;;;;;;6.38;1.98;;;;;;;16.14;100.00;101459.78;5074756;28;20028;-37
2023/06/30 01:05:17;;;;;;;3.83;1.70;;;;;;;16.09;100.00;101467.09;5074707;28;20028;-36
2023/06/30 01:07:51;;;;;;;6.03;1.98;;;;;;;15.98;100.00;101466.13;5074882;28;20054;-36
2023/06/30 01:10:24;;;;;;;5.68;1.92;;;;;;;15.98;100.00;101462.56;5074310;28;20397;-37
2023/06/30 01:12:50;;;;;;;6.25;2.20;;;;;;;16.00;100.00;101454.94;5074779;28;20032;-37
2023/06/30 01:15:16;;;;;;;5.60;1.98;;;;;;;15.96;100.00;101466.38;5074174;28;20032;-37
2023/06/30 01:17:45;;;;;;;;;;;;;;;16.10;100.00;101461.38;5074929;28;20104;-37
2023/06/30 01:20:12;;;;;;;11.32;2.53;;;;;;;15.78;100.00;101444.84;5073793;28;20387;-36
2023/06/30 01:22:52;;;;;;;6.00;1.70;;;;;;;15.82;100.00;101448.72;5073305;28;20028;-36
2023/06/30 01:25:25;;;;;;;4.90;1.80;;;;;;;15.76;100.00;101459.78;5074339;28;20024;-36
2023/06/30 01:27:51;;;;;;;7.80;2.22;;;;;;;15.77;100.00;101454.13;5074087;28;20060;-36
2023/06/30 01:30:17;;;;;;;;;;;;;;;15.96;100.00;101471.84;5074138;28;20082;-36
2023/06/30 01:32:43;;;;;;;3.28;1.52;;;;;;;15.82;100.00;101459.63;5074242;28;20034;-36
2023/06/30 01:35:08;;;;;;;7.18;1.88;;;;;;;15.79;100.00;101467.50;5073541;28;20081;-36
2023/06/30 01:37:34;;;;;;;;;;;;;;;15.91;100.00;101468.22;5073723;28;20119;-37
2023/06/30 01:40:00;;;;;;;6.83;1.80;;;;;;;15.78;100.00;101474.84;5073949;28;19912;-36
2023/06/30 01:42:27;;;;;;;9.05;2.35;;;;;;;15.58;100.00;101458.97;5074266;28;20259;-36
2023/06/30 01:44:53;;;;;;;5.60;1.90;;;;;;;15.58;100.00;101453.53;5073389;28;20056;-37
2023/06/30 01:47:18;;;;;;;;;;;;;;;15.77;100.00;101461.47;5074110;28;20035;-36
2023/06/30 01:49:45;;;;;;;5.07;1.70;;;;;;;15.55;100.00;101464.91;5073576;28;19908;-36
2023/06/30 01:52:10;;;;;;;7.43;2.10;;;;;;;15.57;100.00;101457.34;5074008;28;20345;-37
2023/06/30 01:54:36;;;;;;;;;;;;;;;15.68;100.00;101453.72;5073916;28;20029;-36
2023/06/30 01:57:01;;;;;;;4.00;1.63;;;;;;;15.42;100.00;101459.78;5073872;28;19912;-37
2023/06/30 01:59:27;;;;;;;;;;;;;;;15.59;100.00;101454.34;5073931;28;20062;-37
2023/06/30 02:01:52;;;;;;;12.63;3.50;;;;;;;15.42;100.00;101457.91;5073177;28;20037;-37
2023/06/30 02:04:17;;;;;;;;;;;;;;;15.51;100.00;101446.59;5073496;28;20107;-37
2023/06/30 02:06:43;;;;;;;4.50;1.70;;;;;;;15.29;100.00;101441.06;5073251;28;19912;-37
2023/06/30 02:09:08;;;;;;;5.47;1.90;;;;;;;15.31;100.00;101445.19;5073725;28;20270;-37
2023/06/30 02:11:34;;;;;;;;;;;;;;;15.46;100.00;101455.50;5073626;28;20056;-37
2023/06/30 02:13:59;;;;;;;7.23;1.80;;;;;;;15.26;100.00;101455.19;5073089;28;20317;-37
2023/06/30 02:16:24;;;;;;;;;;;;;;;15.42;100.00;101452.47;5074200;28;20259;-37
2023/06/30 02:18:54;;;;;;;6.07;2.20;;;;;;;15.09;100.00;101445.09;5073028;28;19913;-37
2023/06/30 02:21:20;;;;;;;8.52;2.10;;;;;;;15.18;100.00;101450.97;5071772;28;20325;-37
2023/06/30 02:23:45;;;;;;;;;;;;;;;15.34;100.00;101452.06;5073453;28;20053;-37
2023/06/30 02:26:10;;;;;;;7.47;1.83;;;;;;;15.11;100.00;101451.13;5073089;28;19951;-37
2023/06/30 02:28:36;;;;;;;5.22;1.50;;;;;;;15.02;100.00;101447.16;5073151;28;20282;-37
2023/06/30 02:31:01;;;;;;;7.28;1.83;;;;;;;14.93;100.00;101456.78;5072952;28;20491;-37
2023/06/30 02:33:26;;;;;;;;;;;;;;;15.15;100.00;101449.56;5073284;28;20037;-37
2023/06/30 02:35:52;;;;;;;4.13;1.48;;;;;;;14.96;100.00;101444.59;5073721;28;19944;-37
2023/06/30 02:38:17;;;;;;;;;;;;;;;15.14;100.00;101458.81;5073106;28;20094;-37
2023/06/30 02:40:42;;;;;;;6.03;1.63;;;;;;;14.96;100.00;101461.75;5073124;28;20054;-36
2023/06/30 02:43:08;;;;;;;5.65;1.77;;;;;;;14.97;100.00;101468.03;5072432;28;20309;-36
2023/06/30 02:45:33;;;;;;;;;;;;;;;15.08;100.00;101470.69;5073447;28;20029;-36
2023/06/30 02:47:59;;;;;;;7.90;2.10;;;;;;;14.90;100.00;101468.19;5072654;28;20303;-36
2023/06/30 02:50:31;;;;;;;;;;;;;;;15.05;100.00;101476.63;5073904;28;20035;-36
2023/06/30 02:53:00;;;;;;;5.50;1.85;;;;;;;14.88;100.00;101475.75;5072716;28;19916;-36
2023/06/30 02:55:25;;;;;;;6.00;2.10;;;;;;;14.76;100.00;101477.72;5072789;28;20032;-36
2023/06/30 02:57:51;;;;;;;;;;;;;;;14.94;100.00;101480.25;5073053;28;20385;-36
2023/06/30 03:00:16;;;;;;;7.40;2.10;;;;;;;14.83;100.00;101472.94;5072988;28;19921;-36
2023/06/30 03:02:42;;;;;;;5.95;1.85;;;;;;;14.66;100.00;101465.56;5072955;28;20068;-36
2023/06/30 03:05:08;;;;;;;8.93;2.20;;;;;;;14.71;100.00;101475.72;5072556;28;20460;-37
2023/06/30 03:07:33;;;;;;;;;;;;;;;14.85;100.00;101484.44;5073487;28;20040;-37
2023/06/30 03:09:59;;;;;;;5.18;1.90;;;;;;;14.67;100.00;101475.38;5072808;28;19913;-37
2023/06/30 03:12:24;;;;;;;4.72;2.05;;;;;;;14.59;100.00;101474.94;5072838;28;20054;-37
2023/06/30 03:14:49;;;;;;;6.97;2.10;;;;;;;14.54;100.00;101481.13;5072261;28;20062;-37
2023/06/30 03:17:15;;;;;;;;;;;;;;;14.72;100.00;101482.00;5072925;28;20046;-37
2023/06/30 03:19:40;;;;;;;6.03;2.00;;;;;;;14.39;100.00;101478.03;5072077;28;20291;-37
2023/06/30 03:22:05;;;;;;;4.28;1.85;;;;;;;14.46;100.00;101478.75;5072483;28;20266;-44
2023/06/30 03:24:31;;;;;;;;;;;;;;;14.59;100.00;101472.22;5072780;28;20158;-37
2023/06/30 03:26:56;;;;;;;5.27;2.17;;;;;;;14.30;100.00;101465.88;5072395;28;19912;-37
2023/06/30 03:29:22;;;;;;;6.68;2.10;;;;;;;14.21;100.00;101470.06;5072221;28;20342;-37
2023/06/30 03:31:47;;;;;;;;;;;;;;;14.36;100.00;101470.38;5072782;28;20024;-37
2023/06/30 03:34:13;;;;;;;7.47;2.40;;;;;;;14.01;100.00;101465.84;5072026;28;19908;-37
2023/06/30 03:36:38;;;;;;;7.82;2.13;;;;;;;14.05;100.00;101467.00;5072838;28;20025;-37
2023/06/30 03:39:05;;;;;;;;;;;;;;;14.22;100.00;101464.38;5073185;28;20444;-37
2023/06/30 03:41:30;;;;;;;4.90;1.90;;;;;;;13.95;100.00;101453.19;5072755;28;19912;-37
2023/06/30 03:43:56;;;;;;;;;;;;;;;14.24;100.00;101461.41;5072582;28;20108;-37
2023/06/30 03:46:21;;;;;;;4.88;2.10;;;;;;;14.05;100.00;101450.69;5074341;28;20050;-36
2023/06/30 03:48:47;;;;;;;6.43;2.20;;;;;;;14.08;100.00;101458.38;5075769;28;20035;-36
2023/06/30 03:51:12;;;;;;;;;;;;;;;14.25;100.00;101455.75;5076829;28;20101;-36
2023/06/30 03:53:37;;;;;;;5.15;2.17;;;;;;;13.95;100.00;101450.47;5075924;28;19912;-37
2023/06/30 03:56:03;;;;;;;;;;;;;;;14.16;100.00;101454.47;5076098;28;20027;-37
2023/06/30 03:58:28;;;;;;;6.53;2.13;;;;;;;13.99;100.00;101464.41;5075432;28;20372;-36
2023/06/30 04:00:54;;;;;;;5.38;2.00;;;;;;;13.95;100.00;101453.19;5076011;28;20028;-36
2023/06/30 04:03:20;;;;;;;5.70;2.22;;;;;;;13.99;100.00;101451.63;5075896;28;20032;-36
2023/06/30 04:05:45;;;;;;;;;;;;;;;14.13;100.00;101454.94;5076559;28;20021;-36
2023/06/30 04:08:11;;;;;;;8.90;2.65;;;;;;;13.85;100.00;101451.06;5075554;28;19948;-36
2023/06/30 04:10:36;;;;;;;8.40;2.65;;;;;;;13.95;100.00;101455.91;5076160;28;20028;-36
2023/06/30 04:13:05;;;;;;;6.25;1.98;;;;;;;13.95;100.00;101465.94;5075791;28;20479;-36
2023/06/30 04:15:30;;;;;;;5.35;2.20;;;;;;;13.95;100.00;101461.34;5075158;28;20033;-36
2023/06/30 04:17:55;;;;;;;;;;;;;;;14.12;100.00;101458.72;5075912;28;20028;-36
2023/06/30 04:20:21;;;;;;;4.90;2.37;;;;;;;14.01;100.00;101471.28;5075196;28;19920;-37
2023/06/30 04:22:46;;;;;;;;;;;;;;;14.15;100.00;101469.09;5076296;28;20032;-36
2023/06/30 04:25:12;;;;;;;7.38;2.55;;;;;;;14.07;100.00;101469.50;5074972;28;19997;-36
2023/06/30 04:27:37;;;;;;;8.55;2.65;;;;;;;14.01;100.00;101463.13;5075256;28;20044;-36
2023/06/30 04:30:04;;;;;;;6.38;2.67;;;;;;;14.03;100.00;101447.38;5075112;28;20082;-37
2023/06/30 04:32:29;;;;;;;6.57;2.30;;;;;;;14.00;100.00;101464.16;5075642;28;20052;-37
2023/06/30 04:34:58;;;;;;;;;;;;;;;14.27;100.00;101463.66;5075755;28;20502;-37
2023/06/30 04:37:23;;;;;;;5.25;2.55;;;;;;;14.22;100.00;101466.28;5075795;28;19912;-36
2023/06/30 04:39:50;;;;;;;;;;;;;;;14.36;100.00;101454.88;5075359;28;20115;-36
2023/06/30 04:42:15;;;;;;;5.93;2.50;;;;;;;14.18;100.00;101446.88;5075476;28;19921;-37
2023/06/30 04:44:41;;;;;;;6.28;2.65;;;;;;;14.30;100.00;101458.56;5074873;28;20024;-37
2023/06/30 04:47:06;;;;;;;5.75;2.45;;;;;;;14.37;100.00;101456.53;5075420;28;20039;-37
2023/06/30 04:49:32;;;;;;;7.00;2.35;;;;;;;14.47;100.00;101455.06;5075321;28;20047;-37
2023/06/30 04:51:58;;;;;;;7.78;3.15;;;;;;;14.40;100.00;101457.94;5074762;28;20032;-37
2023/06/30 04:54:23;;;;;;;;;;;;;;;14.71;100.00;101458.56;5075092;28;20115;-37
2023/06/30 04:56:48;;;;;;;4.57;2.40;;;;;;;14.65;100.00;101455.75;5074269;28;19913;-37
2023/06/30 04:59:14;;;;;;;5.65;2.20;;;;;;;14.80;100.00;101457.94;5074256;28;20299;-37
2023/06/30 05:01:39;;;;;;;7.20;2.33;;;;;;;14.86;100.00;101456.94;5074599;28;20029;-37
2023/06/30 05:04:04;;;;;;;;;;;;;;;15.08;100.00;101467.13;5074604;28;20043;-37
2023/06/30 05:06:30;;;;;;;3.93;2.20;;;;;;;15.05;100.00;101457.56;5074247;28;19912;-36
2023/06/30 05:08:55;;;;;;;9.98;3.67;;;;;;;15.07;100.00;101447.22;5074426;28;20365;-36
2023/06/30 05:11:20;;;;;;;;;;;;;;;15.35;100.00;101459.97;5074670;28;20457;-36
2023/06/30 05:13:46;;;;;;;4.40;2.27;;;;;;;15.19;100.00;101450.72;5074053;28;19969;-36
2023/06/30 05:16:12;;;;;;;5.32;2.13;;;;;;;15.41;100.00;101456.25;5074151;28;20816;-36
2023/06/30 05:18:37;;;;;;;6.57;2.72;;;;;;;15.40;100.00;101456.50;5074879;28;20368;-37
2023/06/30 05:21:02;;;;;;;;;;;;;;;15.61;100.00;101447.56;5074758;28;20036;-36
2023/06/30 05:23:28;;;;;;;5.22;2.38;;;;;;;15.56;100.00;101442.03;5074482;28;19908;-36
2023/06/30 05:25:53;;;;;;;;;;;;;;;15.79;100.00;101456.56;5075034;28;20039;-36
2023/06/30 05:28:19;;;;;;;5.17;2.47;;;;;;;15.76;100.00;101454.34;5074337;28;20326;-36
2023/06/30 05:30:44;;;;;;;4.35;2.20;;;;;;;15.80;100.00;101452.78;5074152;28;20792;-36
2023/06/30 05:33:09;;;;;;;;;;;;;;;16.02;100.00;101458.28;5074811;28;20032;-36
2023/06/30 05:35:35;;;;;;;6.93;2.53;;;;;;;15.94;99.62;101459.53;5073648;28;20019;-37
2023/06/30 05:38:00;;;;;;;;;;;;;;;16.09;100.00;101462.44;5074083;28;20278;-37
2023/06/30 05:40:25;;;;;;;5.90;2.30;;;;;;;16.01;99.79;101462.91;5073845;28;19917;-37
2023/06/30 05:42:51;;;;;;;;;;;;;;;16.25;100.00;101459.91;5073939;28;20271;-38
2023/06/30 05:45:16;;;;;;;5.10;2.30;;;;;;;16.14;98.20;101457.06;5073645;28;19912;-37
2023/06/30 05:47:42;;;;;;;;;;;;;;;16.34;99.12;101466.59;5073870;28;20338;-37
2023/06/30 05:50:07;;;;;;;4.68;2.13;;;;;;;16.26;98.66;101464.31;5073895;28;19916;-37
2023/06/30 05:52:33;;;;;;;;;;;;;;;16.45;99.35;101462.91;5073088;28;20085;-36
2023/06/30 05:54:59;;;;;;;4.07;2.17;;;;;;;16.43;97.20;101460.41;5073689;28;19915;-37
2023/06/30 05:57:26;;;;;;;12.90;2.60;;;;;;;16.44;95.75;101456.59;5074227;28;20254;-37
2023/06/30 05:59:52;;;;;;;4.32;1.90;;;;;;;16.55;95.48;101468.50;5073790;28;20078;-37
2023/06/30 06:02:17;;;;;;;;;;;;;;;16.77;97.23;101463.00;5074295;28;20032;-37
2023/06/30 06:04:43;;;;;;;4.73;1.73;;;;;;;16.64;95.43;101438.81;5073456;28;19958;-37
2023/06/30 06:07:08;;;;;;;;;;;;;;;16.94;96.59;101462.94;5074391;28;20301;-37
2023/06/30 06:09:33;;;;;;;4.82;1.67;;;;;;;16.84;93.28;101465.56;5072582;28;20372;-37
2023/06/30 06:12:00;;;;;;;;;;;;;;;17.02;94.53;101465.16;5074294;28;20035;-37
2023/06/30 06:14:25;;;;;;;5.93;1.80;;;;;;;16.92;93.41;101462.34;5073233;28;19919;-37
2023/06/30 06:16:51;;;;;;;;;;;;;;;17.08;94.08;101464.16;5073456;28;20370;-37
2023/06/30 06:19:17;;;;;;;3.10;1.30;;;;;;;17.07;92.90;101458.94;5073240;28;19923;-37
2023/06/30 06:21:42;;;;;;;3.83;1.50;;;;;;;17.15;90.24;101463.94;5073482;28;20314;-37
2023/06/30 06:24:08;;;;;;;3.40;1.38;;;;;;;17.24;90.37;101460.47;5072904;28;20107;-37
2023/06/30 06:26:33;;;;;;;;;;;;;;;17.42;92.71;101472.06;5073287;28;20460;-37
2023/06/30 06:28:59;;;;;;;5.10;1.50;;;;;;;17.37;88.20;101459.22;5073023;28;19914;-37
2023/06/30 06:31:24;;;;;;;;;;;;;;;17.55;90.53;101459.88;5074061;28;20481;-37
2023/06/30 06:33:50;;;;;;;4.90;1.95;;;;;;;17.42;88.75;101456.50;5073665;28;20015;-37
2023/06/30 06:36:15;;;;;;;4.65;1.55;;;;;;;17.46;87.47;101460.34;5071378;28;20047;-37
2023/06/30 06:38:40;;;;;;;;;;;;;;;17.67;90.38;101469.53;5072862;28;20032;-36
2023/06/30 06:41:06;;;;;;;5.55;1.40;;;;;;;17.59;84.81;101471.94;5073035;28;19923;-36
2023/06/30 06:43:31;;;;;;;;;;;;;;;17.75;87.99;101465.50;5073290;28;20028;-36
2023/06/30 06:45:56;;;;;;;5.83;1.60;;;;;;;17.57;80.13;101463.16;5073130;28;19966;-36
2023/06/30 06:48:25;;;;;;;;;;;;;;;17.84;85.17;101474.88;5073230;28;20263;-36
2023/06/30 06:50:59;;;;;;;3.75;1.13;;;;;;;17.69;81.46;101472.00;5073165;28;19912;-37
2023/06/30 06:53:35;;;;;;;4.68;1.30;;;;;;;17.73;80.74;101467.69;5072855;28;20039;-37
2023/06/30 06:56:01;;;;;;;3.55;1.35;;;;;;;17.81;78.72;101452.69;5073342;28;20480;-37
2023/06/30 06:58:32;;;;;;;1.95;1.02;;;;;;;17.91;78.76;101466.41;5072477;28;20028;-37
2023/06/30 07:00:58;;;;;;;3.55;1.10;;;;;;;17.86;76.36;101461.78;5073487;28;20448;-37
2023/06/30 07:03:23;;;;;;;4.60;1.10;;;;;;;17.95;75.46;101470.28;5072644;28;20043;-37
2023/06/30 07:05:49;;;;;;;;;;;;;;;18.12;80.57;101470.94;5073927;28;20032;-37
2023/06/30 07:08:18;;;;;;;2.70;0.95;;;;;;;18.06;75.19;101460.22;5072886;28;19912;-38
2023/06/30 07:10:45;;;;;;;2.15;1.00;;;;;;;18.13;72.66;101467.09;5073279;28;20025;-38
2023/06/30 07:13:11;;;;;;;2.75;1.20;;;;;;;18.23;72.28;101467.13;5073046;28;20025;-38
2023/06/30 07:15:36;;;;;;;;;;;;;;;18.44;77.66;101468.03;5073335;28;20170;-35
2023/06/30 07:18:02;;;;;;;3.57;1.23;;;;;;;18.35;70.52;101463.34;5072299;28;20434;-35
2023/06/30 07:20:28;;;;;;;3.80;1.23;;;;;;;18.28;68.69;101458.13;5073565;28;20282;-36
2023/06/30 07:22:55;;;;;;;4.10;1.17;;;;;;;18.39;68.95;101470.75;5076469;28;20050;-36
2023/06/30 07:25:21;;;;;;;5.10;1.00;;;;;;;18.44;68.65;101468.03;5076965;28;20125;-37
2023/06/30 07:27:54;;;;;;;2.80;1.17;;;;;;;18.44;66.67;101476.25;5076508;28;20476;-36
2023/06/30 07:30:24;;;;;;;2.40;0.80;;;;;;;18.42;68.99;101474.88;5076810;28;20054;-37
2023/06/30 07:32:50;;;;;;;3.72;1.00;;;;;;;18.52;68.47;101469.44;5076646;28;20375;-36
2023/06/30 07:35:19;;;;;;;4.13;0.98;;;;;;;18.52;66.53;101469.44;5075957;28;20024;-36
2023/06/30 07:37:45;;;;;;;2.38;0.98;;;;;;;18.48;67.00;101462.84;5076764;28;20032;-36
2023/06/30 07:40:11;;;;;;;;;;;;;;;18.71;71.74;101476.09;5076594;28;20035;-37
2023/06/30 07:42:38;;;;;;;3.42;1.13;;;;;;;18.63;67.15;101465.63;5076448;28;19923;-37
2023/06/30 07:45:09;;;;;;;2.70;0.90;;;;;;;18.74;66.17;101478.31;5076442;28;20099;-37
2023/06/30 07:47:35;;;;;;;2.83;1.02;;;;;;;18.76;67.14;101475.28;5075786;28;20059;-37
2023/06/30 07:50:01;;;;;;;3.53;1.15;;;;;;;18.82;67.11;101473.38;5076171;28;20361;-37
2023/06/30 07:52:27;;;;;;;3.95;1.35;;;;;;;18.82;65.19;101473.38;5075685;28;20094;-37
2023/06/30 07:54:55;;;;;;;4.38;0.93;;;;;;;18.78;65.62;101470.34;5075374;28;20149;-37
2023/06/30 07:57:26;;;;;;;3.60;1.08;;;;;;;18.80;67.07;101470.09;5075816;28;20102;-37
2023/06/30 07:59:51;;;;;;;2.20;0.80;;;;;;;18.95;66.99;101464.66;5076005;28;20080;-37
2023/06/30 08:02:17;;;;;;;;;;;;;;;19.16;68.28;101474.53;5075825;28;20152;-37
2023/06/30 08:04:43;;;;;;;4.10;1.08;;;;;;;19.13;64.39;101474.25;5075667;28;19908;-37
2023/06/30 08:07:08;;;;;;;;;;;;;;;19.30;67.35;101463.84;5075427;28;20024;-37
2023/06/30 08:09:33;;;;;;;2.28;0.70;;;;;;;19.35;65.38;101465.75;5075424;28;19953;-37
2023/06/30 08:11:59;;;;;;;2.58;1.00;;;;;;;19.42;65.15;101471.78;5075592;28;20035;-37
2023/06/30 08:14:24;;;;;;;6.45;1.17;;;;;;;19.54;64.29;101470.41;5075502;28;20029;-37
2023/06/30 08:16:49;;;;;;;4.47;1.20;;;;;;;19.60;63.49;101462.22;5075548;28;20358;-37
2023/06/30 08:19:15;;;;;;;7.97;1.20;;;;;;;19.55;63.51;101449.28;5076129;28;20036;-37
2023/06/30 08:21:40;;;;;;;2.72;1.20;;;;;;;19.70;63.78;101470.41;5075695;28;20025;-37
2023/06/30 08:24:05;;;;;;;2.42;0.70;;;;;;;19.75;63.41;101465.75;5075396;28;20562;-37
2023/06/30 08:26:31;;;;;;;6.10;1.70;;;;;;;19.86;63.70;101455.56;5074485;28;20036;-37
2023/06/30 08:28:56;;;;;;;3.28;1.08;;;;;;;20.11;64.47;101470.34;5075266;28;20029;-37
2023/06/30 08:31:21;;;;;;;5.00;1.10;;;;;;;20.17;62.67;101460.97;5075500;28;20029;-36
2023/06/30 08:33:47;;;;;;;3.25;1.20;;;;;;;20.26;61.17;101459.31;5075065;28;20029;-37
2023/06/30 08:36:12;;;;;;;3.50;1.20;;;;;;;20.17;63.44;101456.31;5075565;28;20035;-37
2023/06/30 08:38:37;;;;;;;3.28;0.90;;;;;;;20.37;64.90;101451.81;5075698;28;20031;-37
2023/06/30 08:41:03;;;;;;;3.10;1.05;;;;;;;20.59;63.09;101446.78;5075432;28;20048;-37
2023/06/30 08:43:31;;;;;;;2.95;1.00;;;;;;;20.68;59.40;101445.09;5073696;28;20020;-37
2023/06/30 08:45:58;;;;;;;4.20;1.40;;;;;;;20.48;59.74;101440.53;5075015;28;20043;-37
2023/06/30 08:48:26;;;;;;;3.03;1.40;;;;;;;20.33;59.76;101446.88;5074606;28;20082;-37
2023/06/30 08:50:52;;;;;;;3.75;1.20;;;;;;;20.31;59.68;101445.53;5074662;28;20059;-37
2023/06/30 08:53:18;;;;;;;2.47;0.90;;;;;;;20.26;61.27;101438.16;5074660;28;20484;-37
2023/06/30 08:55:45;;;;;;;3.92;1.08;;;;;;;20.32;59.17;101436.19;5075004;28;20028;-37
2023/06/30 08:58:11;;;;;;;3.95;1.00;;;;;;;20.35;56.75;101443.03;5074681;28;20107;-37
2023/06/30 09:00:36;;;;;;;2.83;1.10;;;;;;;20.41;58.36;101444.69;5073685;28;20132;-37
2023/06/30 09:03:06;;;;;;;3.95;1.30;;;;;;;20.56;58.16;101433.63;5074309;28;20017;-37
2023/06/30 09:05:34;;;;;;;2.80;1.08;;;;;;;20.62;59.25;101435.22;5075280;28;20488;-37
2023/06/30 09:08:03;;;;;;;2.95;1.10;;;;;;;20.75;59.60;101437.34;5074810;28;20170;-37
2023/06/30 09:10:33;;;;;;;3.33;1.10;;;;;;;20.73;57.62;101433.25;5074231;28;20033;-37
2023/06/30 09:13:00;;;;;;;3.33;1.25;;;;;;;20.79;58.03;101418.38;5075115;28;20025;-37
2023/06/30 09:15:25;;;;;;;4.68;1.10;;;;;;;20.97;58.15;101419.59;5074118;28;20033;-37
2023/06/30 09:17:52;;;;;;;3.40;1.00;;;;;;;20.98;59.16;101426.75;5074850;28;20037;-37
2023/06/30 09:20:21;;;;;;;2.85;1.40;;;;;;;21.19;57.66;101427.41;5074136;28;20024;-37
2023/06/30 09:22:46;;;;;;;3.50;1.20;;;;;;;21.20;56.94;101429.06;5075356;28;20059;-37
2023/06/30 09:25:32;;;;;;;4.72;1.40;;;;;;;21.42;58.67;101436.84;5074261;28;20413;-37
2023/06/30 09:27:58;;;;;;;2.35;0.95;;;;;;;21.28;58.43;101432.00;5074443;28;20089;-37
2023/06/30 09:30:33;;;;;;;3.17;0.95;;;;;;;21.17;58.04;101424.13;5074443;28;20028;-37
2023/06/30 09:32:59;;;;;;;3.92;1.00;;;;;;;21.09;57.45;101417.31;5074680;28;20029;-37
2023/06/30 09:35:24;;;;;;;3.45;1.00;;;;;;;21.14;55.79;101419.22;5073964;28;20032;-37
2023/06/30 09:37:50;;;;;;;2.50;1.08;;;;;;;21.13;55.79;101423.88;5073751;28;20515;-37
2023/06/30 09:40:17;;;;;;;3.90;1.27;;;;;;;21.10;56.29;101413.47;5073796;28;20474;-37
2023/06/30 09:42:44;;;;;;;4.30;1.23;;;;;;;21.26;54.92;101422.38;5073410;28;20040;-37
2023/06/30 09:45:10;;;;;;;4.03;1.30;;;;;;;21.32;57.11;101424.81;5073735;28;20056;-37
2023/06/30 09:47:36;;;;;;;4.25;1.45;;;;;;;21.19;55.27;101411.72;5073876;28;20028;-38
2023/06/30 09:50:02;;;;;;;1.98;1.00;;;;;;;21.43;54.68;101422.00;5074750;28;20033;-37
2023/06/30 09:52:30;;;;;;;2.28;1.00;;;;;;;21.37;55.17;101415.72;5073690;28;20485;-37
2023/06/30 09:54:56;;;;;;;4.78;1.10;;;;;;;21.32;54.77;101411.06;5073565;28;20040;-36
2023/06/30 09:57:26;;;;;;;3.50;0.80;;;;;;;21.30;55.92;101418.81;5074179;28;20385;-36
2023/06/30 09:59:51;;;;;;;4.07;1.58;;;;;;;21.30;54.58;101404.19;5073870;28;20048;-37
2023/06/30 10:02:17;;;;;;;5.63;1.20;;;;;;;21.55;54.19;101416.91;5073508;28;20488;-37
2023/06/30 10:04:43;;;;;;;4.93;2.60;;;;;;;21.70;53.94;101402.19;5073444;28;20459;-37
2023/06/30 10:07:09;;;;;;;4.45;1.50;;;;;;;21.99;55.00;101416.69;5073367;28;20044;-37
2023/06/30 10:09:37;;;;;;;5.03;1.38;;;;;;;21.96;55.31;101414.56;5073426;28;20123;-37
2023/06/30 10:12:04;;;;;;;2.88;1.45;;;;;;;21.87;54.70;101401.72;5073506;28;20024;-38
2023/06/30 10:14:33;;;;;;;5.10;1.08;;;;;;;22.14;53.16;101399.19;5073323;28;20066;-37
2023/06/30 10:17:01;;;;;;;3.55;0.98;;;;;;;22.00;51.99;101401.00;5074119;28;20405;-37
2023/06/30 10:19:28;;;;;;;3.58;0.88;;;;;;;21.87;51.90;101404.47;5073149;28;20028;-37
2023/06/30 10:21:55;;;;;;;2.47;0.98;;;;;;;21.71;52.61;101395.56;5073862;28;20028;-38
2023/06/30 10:24:29;;;;;;;4.32;1.00;;;;;;;21.79;51.91;101398.50;5073233;28;20031;-38
2023/06/30 10:26:55;;;;;;;4.22;1.10;;;;;;;21.92;51.96;101394.22;5073668;28;20079;-38
2023/06/30 10:29:20;;;;;;;3.55;1.20;;;;;;;22.16;51.25;101394.22;5073183;28;20024;-37
2023/06/30 10:31:46;;;;;;;2.67;1.20;;;;;;;22.27;51.54;101376.44;5073948;28;20472;-38
2023/06/30 10:34:12;;;;;;;1.85;1.00;;;;;;;22.31;50.14;101388.50;5073149;28;20081;-38
2023/06/30 10:36:39;;;;;;;3.08;0.90;;;;;;;22.31;49.66;101383.00;5073862;28;20028;-38
2023/06/30 10:39:04;;;;;;;3.95;0.90;;;;;;;22.25;50.36;101375.09;5072677;28;20440;-38
2023/06/30 10:41:30;;;;;;;2.88;1.20;;;;;;;22.25;50.44;101378.69;5073271;28;20028;-38
2023/06/30 10:44:06;;;;;;;2.30;1.10;;;;;;;22.45;52.28;101372.06;5073633;28;20028;-38
2023/06/30 10:46:47;;;;;;;4.00;1.20;;;;;;;22.73;50.64;101375.75;5073064;28;20032;-37
2023/06/30 10:49:38;;;;;;;4.95;1.40;;;;;;;22.42;54.85;101360.81;5072611;28;20067;-37
2023/06/30 10:52:07;;;;;;;4.32;1.20;;;;;;;22.51;50.58;101376.38;5073173;28;20020;-38
2023/06/30 10:54:46;;;;;;;3.42;1.20;;;;;;;22.57;52.00;101375.16;5073021;28;20047;-37
2023/06/30 10:57:33;;;;;;;4.40;0.82;;;;;;;22.40;49.82;101365.78;5073151;28;20032;-37
2023/06/30 11:00:11;;;;;;;3.30;1.10;;;;;;;22.48;50.70;101365.13;5058966;28;20048;-38
2023/06/30 11:02:46;;;;;;;3.38;1.33;;;;;;;22.42;54.10;101358.88;5073163;28;20025;-38
2023/06/30 11:05:43;;;;;;;3.90;1.23;;;;;;;22.75;52.85;101365.25;5072511;28;20494;-38
2023/06/30 11:08:22;;;;;;;2.77;1.10;;;;;;;22.73;51.52;101355.63;5060292;28;20056;-38
2023/06/30 11:10:47;;;;;;;2.53;1.00;;;;;;;22.71;49.84;101347.66;5072729;28;20464;-38
2023/06/30 11:13:13;;;;;;;2.45;1.00;;;;;;;22.98;50.71;101352.47;5072009;28;20032;-38
2023/06/30 11:15:45;;;;;;;3.47;1.38;;;;;;;22.92;50.75;101350.94;5071183;28;20036;-38
2023/06/30 11:18:13;;;;;;;3.47;1.10;;;;;;;23.04;52.51;101350.47;5073598;28;20117;-37
2023/06/30 11:21:05;;;;;;;3.47;1.20;;;;;;;23.34;53.69;101349.91;5070564;28;20037;-38
2023/06/30 11:23:38;;;;;;;3.97;1.20;;;;;;;23.37;48.88;101343.75;5063205;28;20100;-38
2023/06/30 11:26:18;;;;;;;4.82;1.27;;;;;;;23.37;50.92;101351.22;5070909;28;20172;-37
2023/06/30 11:28:49;;;;;;;4.05;1.20;;;;;;;23.36;47.38;101346.84;5072103;28;20403;-38
2023/06/30 11:31:15;;;;;;;3.53;1.20;;;;;;;23.24;48.30;101349.28;5072218;28;20021;-38
2023/06/30 11:33:42;;;;;;;3.83;1.08;;;;;;;23.00;48.95;101339.22;5072560;28;20044;-37
2023/06/30 11:36:15;;;;;;;4.57;1.10;;;;;;;22.82;50.21;101346.38;5072500;28;20031;-38